Statsraad Lehmkuhl — LDRG — position and weather

sailwx.info

Track history (hours):
 
Tides and Currents Weather Stations Pressure Air Temp Water Temp Dewpoint Dewpoint Depression Visibility Wind Speed Wind Dir Waves Ship Positions

Statsraad Lehmkuhl (Norway)

Ship's website: http://www.lehmkuhl.no/eng/index.cfm

Last reported at 2020-Apr-02 02:29 UTC. Time now 2020-Apr-02 03:39 UTC.
Position N 60°24' E 005°16'.

Length 85 m; draft 5.5 m.

Type: Sailing vessel. MMSI: 258113000.

Date/timePositionNaut miles runAvg speedWind from/ knotsBaromVisibWave heightAir tempDewpointWater temp
2020-Apr-02 02:29N 60°24' E 005°16'0 0.0
2020-Apr-02 01:59N 60°24' E 005°16'0 0.0
2020-Apr-01 22:58N 60°24' E 005°16'0 0.0
2020-Apr-01 22:29N 60°24' E 005°16'0 0.0
2020-Apr-01 21:29N 60°24' E 005°16'0 0.0
2020-Apr-01 21:00N 60°24' E 005°16'0 0.0
2020-Apr-01 18:28N 60°24' E 005°16'0 0.0
2020-Apr-01 17:59N 60°24' E 005°16'0 0.0
2020-Apr-01 16:59N 60°24' E 005°16'0 0.0
2020-Apr-01 16:30N 60°24' E 005°16'0 0.0
2020-Apr-01 10:28N 60°24' E 005°16'0 0.0
2020-Apr-01 07:59N 60°24' E 005°16'0 0.0
2020-Apr-01 07:30N 60°24' E 005°16'0 0.0
2020-Mar-31 22:00N 60°24' E 005°16'0 0.0
2020-Mar-31 20:58N 60°24' E 005°16'0 0.0
2020-Mar-31 20:28N 60°24' E 005°16'0 0.0
2020-Mar-31 18:00N 60°24' E 005°16'0 0.0
2020-Mar-31 16:28N 60°24' E 005°16'0 0.0
2020-Mar-31 15:58N 60°24' E 005°16'0 0.0
2020-Mar-31 11:28N 60°24' E 005°16'0 0.0
2020-Mar-31 10:58N 60°24' E 005°16'0 0.0
2020-Mar-31 09:59N 60°24' E 005°16'0 0.0
2020-Mar-31 09:29N 60°24' E 005°16'0 0.0
2020-Mar-31 08:30N 60°24' E 005°16'0 0.0
2020-Mar-31 07:28N 60°24' E 005°16'2 2.0
2020-Mar-31 06:30N 60°23' E 005°12'10 6.3
2020-Mar-31 05:00N 60°14' E 005°10'4 7.7
2020-Mar-31 04:31N 60°10' E 005°09'6 6.4
2020-Mar-31 03:30N 60°09' E 004°57'16 6.4
2020-Mar-31 01:01N 60°06' E 004°25'8 5.0
2020-Mar-30 23:30N 60°05' E 004°10'9 4.5
2020-Mar-30 21:30N 60°03' E 003°53'2 4.7
2020-Mar-30 21:00N 60°03' E 003°48'11 3.0
2020-Mar-30 17:30N 60°01' E 003°27'4 4.3
2020-Mar-30 16:30N 60°02' E 003°18'9 4.7
2020-Mar-30 14:30N 60°02' E 002°60'2 4.9
2020-Mar-30 14:00N 60°02' E 002°55'9 4.5
2020-Mar-30 11:55N 60°02' E 002°36'  
Track history (hours):
 
Tides and Currents Weather Stations Pressure Air Temp Water Temp Dewpoint Dewpoint Depression Visibility Wind Speed Wind Dir Waves Ship Positions

Statsraad Lehmkuhl (Norway)

Ship's website: http://www.lehmkuhl.no/eng/index.cfm

Last reported at 2020-Apr-02 02:29 UTC. Time now 2020-Apr-02 03:39 UTC.
Position N 60°24' E 005°16'.

Length 85 m; draft 5.5 m.

Type: Sailing vessel. MMSI: 258113000.

Date/timePositionNaut miles runAvg speedWind from/ knotsBaromVisibWave heightAir tempDewpointWater temp
2020-Apr-02 02:29N 60°24' E 005°16'0 0.0
2020-Apr-02 01:59N 60°24' E 005°16'0 0.0
2020-Apr-01 22:58N 60°24' E 005°16'0 0.0
2020-Apr-01 22:29N 60°24' E 005°16'0 0.0
2020-Apr-01 21:29N 60°24' E 005°16'0 0.0
2020-Apr-01 21:00N 60°24' E 005°16'0 0.0
2020-Apr-01 18:28N 60°24' E 005°16'0 0.0
2020-Apr-01 17:59N 60°24' E 005°16'0 0.0
2020-Apr-01 16:59N 60°24' E 005°16'0 0.0
2020-Apr-01 16:30N 60°24' E 005°16'0 0.0
2020-Apr-01 10:28N 60°24' E 005°16'0 0.0
2020-Apr-01 07:59N 60°24' E 005°16'0 0.0
2020-Apr-01 07:30N 60°24' E 005°16'0 0.0
2020-Mar-31 22:00N 60°24' E 005°16'0 0.0
2020-Mar-31 20:58N 60°24' E 005°16'0 0.0
2020-Mar-31 20:28N 60°24' E 005°16'0 0.0
2020-Mar-31 18:00N 60°24' E 005°16'0 0.0
2020-Mar-31 16:28N 60°24' E 005°16'0 0.0
2020-Mar-31 15:58N 60°24' E 005°16'0 0.0
2020-Mar-31 11:28N 60°24' E 005°16'0 0.0
2020-Mar-31 10:58N 60°24' E 005°16'0 0.0
2020-Mar-31 09:59N 60°24' E 005°16'0 0.0
2020-Mar-31 09:29N 60°24' E 005°16'0 0.0
2020-Mar-31 08:30N 60°24' E 005°16'0 0.0
2020-Mar-31 07:28N 60°24' E 005°16'2 2.0
2020-Mar-31 06:30N 60°23' E 005°12'10 6.3
2020-Mar-31 05:00N 60°14' E 005°10'4 7.7
2020-Mar-31 04:31N 60°10' E 005°09'6 6.4
2020-Mar-31 03:30N 60°09' E 004°57'16 6.4
2020-Mar-31 01:01N 60°06' E 004°25'8 5.0
2020-Mar-30 23:30N 60°05' E 004°10'9 4.5
2020-Mar-30 21:30N 60°03' E 003°53'2 4.7
2020-Mar-30 21:00N 60°03' E 003°48'11 3.0
2020-Mar-30 17:30N 60°01' E 003°27'4 4.3
2020-Mar-30 16:30N 60°02' E 003°18'9 4.7
2020-Mar-30 14:30N 60°02' E 002°60'2 4.9
2020-Mar-30 14:00N 60°02' E 002°55'9 4.5
2020-Mar-30 11:55N 60°02' E 002°36'  

Dump ship's entire track history